Surface/Precipitation History
02/26/2017 11:29  to  2/27/2017 11:29
Change End Date:
Date/Time
(MST)
Sf
Temp Chem Water Layer Surface Precipitation
Sfc Pvt Sub Frz Factor Pct Dpth DpthThk IcePct Cond Salin FI Type Intens Accum Rate
02/27/2017 11:16 Chemically Wet 31.8F - 31F 32F 95 1% 0.10 in - 0% 1 mhos 152 - Yes - - -
02/27/2017 11:12 Chemically Wet 31.6F - 31F 32F 25 1% - - 46% 1 mhos 156 - Yes - - -
02/27/2017 11:02 Chemically Wet 31.5F - 31F 32F 30 0% - - 71% 1 mhos 128 - None None - -
02/27/2017 11:01 Chemically Wet 31.6F - 31F 32F 70 0% - - 63% 1 mhos 107 - None None - -
02/27/2017 10:52 Wet 32.9F - 31F 32F 65 1% 0.00 in - 0% 1 mhos 151 - None None - -
02/27/2017 10:46 Chemically Wet 31.5F - 31F 32F 95 1% - - 69% 2 mhos 185 - None None - -
02/27/2017 10:42 Chemically Wet 31.3F - 31F 32F 95 1% - - 56% 3 mhos 328 - None None - -
02/27/2017 10:32 Chemically Wet 30.6F - 31F 31F 95 2% - - 65% 4 mhos 477 - Yes - - -
02/27/2017 10:31 Chemically Wet 30.4F - 31F 31F 95 2% - - 70% 4 mhos 452 - Yes - - -
02/27/2017 10:22 Ice Warning 29.5F - 31F 32F 95 0% - - 99% 0 mhos 29 - Yes - - -
02/27/2017 10:16 Ice Warning 28.8F - 31F 32F 95 0% - - 99% 0 mhos 30 - Yes - - -
02/27/2017 10:12 Ice Warning 28.6F - 31F 32F 95 0% - - 99% 0 mhos 32 - Yes - - -
02/27/2017 10:02 Ice Warning 27.5F - 31F 32F 95 0% - - 99% 0 mhos 31 - Yes - - -
02/27/2017 10:01 Ice Warning 27.3F - 31F 32F 95 0% - - 99% 0 mhos 31 - Yes - - -
02/27/2017 09:52 Ice Warning 27.0F - 31F 32F 85 0% - - 99% 0 mhos 32 - Yes - - -
Date/Time
(MST)
Sf
Temp Chem Water Layer Surface Precipitation
Sfc Pvt Sub Frz Factor Pct Dpth DpthThk IcePct Cond Salin FI Type Intens Accum Rate
02/27/2017 09:46 Ice Warning 27.0F - 31F 32F 80 0% - - 99% 0 mhos 34 - Yes - - -
02/27/2017 09:42 Ice Warning 27.3F - 31F 32F 65 0% - - 99% 0 mhos 34 - Yes - - -
02/27/2017 09:32 Ice Warning 27.0F - 31F 32F 30 0% - - 99% 0 mhos 35 - Yes - - -
02/27/2017 09:31 Ice Warning 26.8F - 31F 32F 25 0% - - 99% 0 mhos 34 - Yes - - -
02/27/2017 09:22 Ice Warning 24.6F - 31F 32F 20 0% - - 100% 0 mhos 32 - Yes - - -
02/27/2017 09:16 Ice Warning 23.5F - 31F 32F 15 0% - - 100% 0 mhos 31 - Yes - - -
02/27/2017 09:12 Ice Warning 23.4F - 31F 32F 15 0% - - 100% 0 mhos 29 - Yes - - -
02/27/2017 09:02 Ice Warning 23.5F - 31F 32F 15 0% - - 100% 0 mhos 29 - Yes - - -
02/27/2017 09:01 Ice Warning 23.4F - 31F 32F 15 0% - - 100% 0 mhos 29 - Yes - - -
02/27/2017 08:51 Ice Warning 23.5F - 31F 32F 15 0% - - 100% 0 mhos 30 - Yes - - -
02/27/2017 08:46 Ice Warning 23.5F - 31F 32F 15 0% - - 100% 0 mhos 30 - Yes - - -
02/27/2017 08:41 Ice Warning 23.5F - 31F 32F 15 0% - - 100% 0 mhos 31 - Yes - - -
02/27/2017 08:31 Ice Warning 23.5F - 31F 32F 15 0% - - 100% 0 mhos 31 - Yes - - -
02/27/2017 08:31 Ice Warning 23.5F - 31F 32F 15 0% - - 100% 0 mhos 31 - Yes - - -
02/27/2017 08:21 Ice Warning 23.4F - 31F 32F 15 0% - - 100% 0 mhos 31 - Yes - - -
Date/Time
(MST)
Sf
Temp Chem Water Layer Surface Precipitation
Sfc Pvt Sub Frz Factor Pct Dpth DpthThk IcePct Cond Salin FI Type Intens Accum Rate
02/27/2017 08:16 Ice Warning 23.2F - 31F 32F 15 0% - - 100% 0 mhos 31 - Yes - - -
02/27/2017 08:11 Ice Warning 23.0F - 31F 32F 15 0% - - 100% 0 mhos 30 - Yes - - -
02/27/2017 08:01 Ice Warning 23.0F - 31F 32F 15 0% - - 100% 0 mhos 29 - Yes - - -
02/27/2017 08:01 Ice Warning 23.0F - 31F 32F 15 0% - - 100% 0 mhos 29 - Yes - - -
02/27/2017 07:51 Ice Warning 23.2F - 31F 32F 15 0% - - 100% 0 mhos 30 - Yes - - -
02/27/2017 07:46 Ice Warning 23.4F - 31F 32F 15 0% - - 100% 0 mhos 31 - Yes - - -
02/27/2017 07:41 Ice Warning 23.2F - 31F 32F 15 0% - - 100% 0 mhos 30 - Yes - - -
02/27/2017 07:31 Ice Warning 23.0F - 31F 32F 15 0% - - 100% 0 mhos 30 - Yes - - -
02/27/2017 07:31 Ice Warning 23.0F - 31F 32F 15 0% - - 100% 0 mhos 30 - Yes - - -
02/27/2017 07:21 Ice Warning 23.0F - 31F 32F 15 0% - - 100% 0 mhos 29 - None None - -
02/27/2017 07:16 Ice Warning 23.2F - 31F 32F 15 0% - - 100% 0 mhos 29 - Yes - - -
02/27/2017 07:11 Ice Warning 23.2F - 31F 32F 15 0% - - 100% 0 mhos 29 - Yes - - -
02/27/2017 07:01 Ice Warning 23.5F - 31F 32F 20 0% - - 100% 0 mhos 28 - Yes - - -
02/27/2017 07:01 Ice Warning 23.5F - 31F 32F 20 0% - - 100% 0 mhos 28 - Yes - - -
02/27/2017 06:51 Ice Warning 23.5F - 31F 32F 20 0% - - 100% 0 mhos 27 - Yes - - -
Date/Time
(MST)
Sf
Temp Chem Water Layer Surface Precipitation
Sfc Pvt Sub Frz Factor Pct Dpth DpthThk IcePct Cond Salin FI Type Intens Accum Rate
02/27/2017 06:46 Ice Warning 23.7F - 31F 32F 20 0% - - 100% 0 mhos 27 - Yes - - -
02/27/2017 06:41 Ice Warning 24.1F - 31F 32F 20 0% - - 100% 0 mhos 27 - Yes - - -
02/27/2017 06:31 Ice Warning 24.6F - 31F 32F 20 0% - - 100% 0 mhos 27 - Yes - - -
02/27/2017 06:31 Ice Warning 24.6F - 31F 32F 20 0% - - 100% 0 mhos 27 - Yes - - -
02/27/2017 06:21 Ice Warning 25.0F - 31F 32F 25 0% - - 100% 0 mhos 27 - Yes - - -
02/27/2017 06:16 Ice Warning 25.2F - 31F 32F 25 0% - - 100% 0 mhos 26 - Yes - - -
02/27/2017 06:11 Ice Warning 25.2F - 31F 32F 25 0% - - 100% 0 mhos 26 - Yes - - -
02/27/2017 06:01 Ice Warning 25.5F - 31F 32F 25 0% - - 100% 0 mhos 26 - Yes - - -
02/27/2017 05:51 Ice Warning 25.7F - 31F 32F 25 0% - - 100% 0 mhos 26 - Yes - - -
02/27/2017 05:46 Ice Warning 25.9F - 31F 32F 20 0% - - 100% 0 mhos 26 - Yes - - -
02/27/2017 05:41 Ice Warning 26.2F - 31F 32F 25 0% - - 100% 0 mhos 27 - Yes - - -
02/27/2017 05:31 Ice Warning 26.6F - 31F 32F 20 0% - - 100% 0 mhos 26 - Yes - - -
02/27/2017 05:30 Ice Warning 26.6F - 31F 32F 20 0% - - 100% 0 mhos 26 - Yes - - -
02/27/2017 05:20 Ice Warning 27.0F - 31F 32F 25 0% - - 99% 0 mhos 27 - Yes - - -
02/27/2017 05:16 Ice Warning 27.0F - 31F 32F 25 0% - - 99% 0 mhos 27 - Yes - - -
Date/Time
(MST)
Sf
Temp Chem Water Layer Surface Precipitation
Sfc Pvt Sub Frz Factor Pct Dpth DpthThk IcePct Cond Salin FI Type Intens Accum Rate
02/27/2017 05:10 Ice Warning 27.0F - 31F 32F 25 0% - - 99% 0 mhos 27 - Yes - - -
02/27/2017 05:01 Ice Warning 27.0F - 31F 32F 20 0% - - 99% 0 mhos 26 - Yes - - -
02/27/2017 05:00 Ice Warning 27.0F - 31F 32F 20 0% - - 99% 0 mhos 26 - Yes - - -
02/27/2017 04:50 Ice Warning 27.0F - 31F 32F 25 0% - - 99% 0 mhos 26 - Yes - - -
02/27/2017 04:46 Ice Warning 27.0F - 31F 32F 25 0% - - 99% 0 mhos 26 - Yes - - -
02/27/2017 04:40 Ice Warning 27.0F - 31F 32F 25 0% - - 99% 0 mhos 26 - Yes - - -
02/27/2017 04:31 Ice Warning 26.8F - 31F 32F 20 0% - - 100% 0 mhos 26 - Yes - - -
02/27/2017 04:30 Ice Warning 26.8F - 31F 32F 20 0% - - 100% 0 mhos 26 - Yes - - -
02/27/2017 04:20 Ice Warning 26.8F - 31F 32F 25 0% - - 100% 0 mhos 26 - Yes - - -
02/27/2017 04:16 Ice Warning 26.6F - 31F 32F 20 0% - - 100% 0 mhos 26 - Yes - - -
02/27/2017 04:10 Ice Warning 26.6F - 31F 32F 25 0% - - 100% 0 mhos 27 - Yes - - -
02/27/2017 04:01 Ice Warning 26.4F - 31F 32F 20 0% - - 100% 0 mhos 27 - Yes - - -
02/27/2017 04:00 Ice Warning 26.4F - 31F 32F 20 0% - - 100% 0 mhos 27 - Yes - - -
02/27/2017 03:50 Ice Warning 26.1F - 31F 32F 20 0% - - 100% 0 mhos 27 - Yes - - -
02/27/2017 03:46 Ice Warning 26.1F - 31F 32F 20 0% - - 100% 0 mhos 27 - Yes - - -
Date/Time
(MST)
Sf
Temp Chem Water Layer Surface Precipitation
Sfc Pvt Sub Frz Factor Pct Dpth DpthThk IcePct Cond Salin FI Type Intens Accum Rate
02/27/2017 03:40 Ice Warning 26.1F - 31F 32F 20 0% - - 100% 0 mhos 27 - Yes - - -
02/27/2017 03:31 Ice Warning 26.4F - 31F 32F 20 0% - - 100% 0 mhos 28 - Yes - - -
02/27/2017 03:30 Ice Warning 26.4F - 31F 32F 20 0% - - 100% 0 mhos 27 - Yes - - -
02/27/2017 03:20 Ice Warning 26.6F - 31F 32F 20 0% - - 100% 0 mhos 27 - Yes - - -
02/27/2017 03:16 Ice Warning 26.6F - 31F 32F 20 0% - - 100% 0 mhos 27 - Yes - - -
02/27/2017 03:10 Ice Warning 26.8F - 31F 32F 15 0% - - 99% 0 mhos 27 - Yes - - -
02/27/2017 03:01 Ice Warning 27.0F - 31F 32F 20 0% - - 99% 0 mhos 27 - Yes - - -
02/27/2017 03:00 Ice Warning 27.0F - 31F 32F 15 0% - - 99% 0 mhos 27 - Yes - - -
02/27/2017 02:50 Ice Warning 27.1F - 31F 32F 25 0% - - 99% 0 mhos 29 - Yes - - -
02/27/2017 02:46 Ice Warning 27.1F - 31F 32F 25 0% - - 99% 0 mhos 29 - Yes - - -
02/27/2017 02:40 Ice Warning 27.0F - 31F 32F 30 0% - - 99% 0 mhos 29 - Yes - - -
02/27/2017 02:31 Ice Warning 27.0F - 31F 32F 25 0% - - 99% 0 mhos 29 - Yes - - -
02/27/2017 02:30 Ice Warning 27.0F - 31F 32F 30 0% - - 99% 0 mhos 30 - Yes - - -
02/27/2017 02:20 Ice Warning 27.0F - 31F 32F 25 0% - - 99% 0 mhos 30 - Yes - - -
02/27/2017 02:16 Ice Warning 27.0F - 31F 32F 25 0% - - 99% 0 mhos 30 - Yes - - -
Date/Time
(MST)
Sf
Temp Chem Water Layer Surface Precipitation
Sfc Pvt Sub Frz Factor Pct Dpth DpthThk IcePct Cond Salin FI Type Intens Accum Rate
02/27/2017 02:09 Ice Warning 26.8F - 31F 32F 25 0% - - 99% 0 mhos 30 - Yes - - -
02/27/2017 02:01 Ice Warning 26.8F - 31F 32F 25 0% - - 99% 0 mhos 30 - Yes - - -
02/27/2017 01:59 Ice Warning 26.8F - 31F 32F 25 0% - - 99% 0 mhos 30 - Yes - - -
02/27/2017 01:49 Ice Warning 26.4F - 31F 32F 20 0% - - 99% 0 mhos 31 - Yes - - -
02/27/2017 01:46 Ice Warning 26.4F - 31F 32F 25 0% - - 99% 0 mhos 31 - Yes - - -
02/27/2017 01:39 Ice Warning 26.2F - 31F 32F 20 0% - - 99% 0 mhos 32 - Yes - - -
02/27/2017 01:31 Ice Warning 25.9F - 31F 32F 45 0% - - 99% 0 mhos 38 - Yes - - -
02/27/2017 01:29 Ice Warning 25.9F - 31F 32F 45 0% - - 99% 0 mhos 38 - Yes - - -
02/27/2017 01:19 Ice Warning 25.7F - 31F 32F 50 0% - - 99% 0 mhos 38 - Yes - - -
02/27/2017 01:16 Ice Warning 25.7F - 31F 32F 45 0% - - 99% 0 mhos 38 - Yes - - -
02/27/2017 01:09 Ice Warning 25.7F - 31F 32F 45 0% - - 99% 0 mhos 39 - Yes - - -
02/27/2017 01:01 Ice Warning 25.7F - 31F 32F 45 0% - - 99% 0 mhos 39 - Yes - - -
02/27/2017 00:59 Ice Warning 25.7F - 31F 32F 45 0% - - 99% 0 mhos 39 - Yes - - -
02/27/2017 00:49 Ice Warning 25.5F - 31F 32F 40 0% - - 99% 0 mhos 39 - Yes - - -
02/27/2017 00:46 Ice Warning 25.5F - 31F 32F 40 0% - - 99% 0 mhos 39 - Yes - - -
Date/Time
(MST)
Sf
Temp Chem Water Layer Surface Precipitation
Sfc Pvt Sub Frz Factor Pct Dpth DpthThk IcePct Cond Salin FI Type Intens Accum Rate
02/27/2017 00:39 Ice Warning 25.5F - 31F 32F 50 0% - - 99% 0 mhos 39 - Yes - - -
02/27/2017 00:31 Ice Warning 25.3F - 31F 32F 40 0% - - 99% 0 mhos 39 - Yes - - -
02/27/2017 00:29 Ice Warning 25.3F - 31F 32F 50 0% - - 99% 0 mhos 39 - Yes - - -
02/27/2017 00:19 Ice Warning 25.5F - 31F 32F 45 0% - - 99% 0 mhos 38 - Yes - - -
02/27/2017 00:16 Ice Warning 25.7F - 31F 32F 45 0% - - 99% 0 mhos 38 - Yes - - -
02/27/2017 00:09 Ice Warning 25.7F - 31F 32F 40 0% - - 99% 0 mhos 37 - Yes - - -
02/27/2017 00:01 Ice Warning 26.1F - 31F 32F 50 0% - - 99% 0 mhos 36 - Yes - - -
02/26/2017 23:59 Ice Warning 26.1F - 31F 32F 50 0% - - 99% 0 mhos 36 - Yes - - -
02/26/2017 23:49 Ice Warning 26.6F - 31F 32F 45 0% - - 99% 0 mhos 34 - Yes - - -
02/26/2017 23:46 Ice Warning 26.8F - 31F 32F 50 0% - - 99% 0 mhos 34 - Yes - - -
02/26/2017 23:39 Ice Warning 27.1F - 31F 32F 50 0% - - 99% 0 mhos 32 - Yes - - -
02/26/2017 23:31 Ice Warning 27.3F - 31F 32F 45 0% - - 99% 0 mhos 32 - Yes - - -
02/26/2017 23:29 Ice Warning 27.5F - 31F 32F 45 0% - - 99% 0 mhos 32 - Yes - - -
02/26/2017 23:19 Ice Warning 27.5F - 31F 32F 50 0% - - 99% 0 mhos 31 - Yes - - -
02/26/2017 23:16 Ice Warning 27.5F - 31F 32F 50 0% - - 99% 0 mhos 31 - Yes - - -
Date/Time
(MST)
Sf
Temp Chem Water Layer Surface Precipitation
Sfc Pvt Sub Frz Factor Pct Dpth DpthThk IcePct Cond Salin FI Type Intens Accum Rate
02/26/2017 23:09 Ice Warning 27.7F - 31F 32F 40 0% - - 99% 0 mhos 31 - Yes - - -
02/26/2017 23:01 Ice Warning 27.7F - 31F 32F 50 0% - - 99% 0 mhos 30 - Yes - - -
02/26/2017 22:59 Ice Warning 27.7F - 31F 32F 45 0% - - 99% 0 mhos 30 - Yes - - -
02/26/2017 22:48 Ice Warning 27.9F - 31F 32F 50 0% - - 99% 0 mhos 30 - Yes - - -
02/26/2017 22:46 Ice Warning 27.7F - 31F 32F 45 0% - - 99% 0 mhos 30 - Yes - - -
02/26/2017 22:38 Ice Warning 27.9F - 31F 32F 50 0% - - 99% 0 mhos 29 - Yes - - -
02/26/2017 22:31 Ice Warning 27.9F - 31F 32F 50 0% - - 99% 0 mhos 29 - Yes - - -
02/26/2017 22:28 Ice Warning 27.9F - 31F 32F 50 0% - - 99% 0 mhos 29 - Yes - - -
02/26/2017 22:18 Ice Warning 28.0F - 31F 32F 50 0% - - 99% 0 mhos 29 - Yes - - -
02/26/2017 22:16 Ice Warning 28.0F - 31F 32F 45 0% - - 99% 0 mhos 28 - Yes - - -
02/26/2017 22:08 Ice Warning 28.0F - 31F 32F 45 0% - - 99% 0 mhos 28 - None None - -
02/26/2017 22:01 Ice Warning 28.0F - 31F 32F 45 0% - - 99% 0 mhos 29 - Yes - - -
02/26/2017 21:58 Ice Warning 28.0F - 31F 32F 45 0% - - 99% 0 mhos 29 - Yes - - -
02/26/2017 21:48 Ice Warning 28.2F - 31F 32F 50 0% - - 99% 0 mhos 29 - Yes - - -
02/26/2017 21:46 Ice Warning 28.2F - 31F 32F 50 0% - - 99% 0 mhos 29 - Yes - - -
Date/Time
(MST)
Sf
Temp Chem Water Layer Surface Precipitation
Sfc Pvt Sub Frz Factor Pct Dpth DpthThk IcePct Cond Salin FI Type Intens Accum Rate
02/26/2017 21:38 Ice Warning 28.2F - 31F 32F 65 0% - - 99% 0 mhos 29 - Yes - - -
02/26/2017 21:31 Ice Warning 28.6F - 31F 32F 95 0% - - 99% 0 mhos 32 - Yes - - -
02/26/2017 21:28 Ice Warning 28.6F - 31F 32F 95 0% - - 99% 0 mhos 33 - Yes - - -
02/26/2017 21:18 Ice Warning 28.4F - 31F 32F 95 0% - - 99% 0 mhos 33 - Yes - - -
02/26/2017 21:16 Ice Warning 28.2F - 31F 32F 95 0% - - 99% 0 mhos 33 - Yes - - -
02/26/2017 21:08 Ice Warning 28.0F - 31F 32F 95 0% - - 99% 0 mhos 34 - Yes - - -
02/26/2017 21:01 Ice Warning 28.0F - 31F 32F 95 0% - - 99% 0 mhos 35 - Yes - - -
02/26/2017 20:58 Ice Warning 28.0F - 31F 32F 95 0% - - 99% 0 mhos 35 - Yes - - -
02/26/2017 20:48 Ice Warning 28.0F - 31F 32F 95 0% - - 99% 0 mhos 35 - Yes - - -
02/26/2017 20:46 Ice Warning 27.9F - 31F 32F 95 0% - - 99% 0 mhos 35 - Yes - - -
02/26/2017 20:38 Ice Warning 27.9F - 31F 32F 95 0% - - 99% 0 mhos 36 - Yes - - -
02/26/2017 20:31 Ice Warning 27.9F - 31F 32F 95 0% - - 99% 0 mhos 36 - Yes - - -
02/26/2017 20:28 Ice Warning 27.9F - 31F 32F 95 0% - - 99% 0 mhos 38 - Yes - - -
02/26/2017 20:18 Ice Warning 27.7F - 31F 32F 95 0% - - 99% 0 mhos 40 - Yes - - -
02/26/2017 20:16 Ice Warning 27.7F - 31F 32F 95 0% - - 99% 0 mhos 40 - Yes - - -
Date/Time
(MST)
Sf
Temp Chem Water Layer Surface Precipitation
Sfc Pvt Sub Frz Factor Pct Dpth DpthThk IcePct Cond Salin FI Type Intens Accum Rate
02/26/2017 20:08 Ice Warning 27.9F - 31F 32F 95 0% - - 99% 0 mhos 45 - Yes - - -
02/26/2017 20:01 Ice Warning 27.9F - 31F 32F 95 0% - - 99% 0 mhos 46 - Yes - - -
02/26/2017 19:58 Ice Warning 27.9F - 31F 32F 95 0% - - 99% 0 mhos 46 - Yes - - -
02/26/2017 19:48 Ice Warning 27.9F - 31F 32F 95 0% - - 99% 0 mhos 46 - Yes - - -
02/26/2017 19:46 Ice Warning 27.9F - 31F 32F 95 0% - - 99% 0 mhos 45 - Yes - - -
02/26/2017 19:37 Ice Warning 27.9F - 31F 32F 95 0% - - 99% 0 mhos 44 - Yes - - -
02/26/2017 19:31 Ice Warning 27.9F - 31F 32F 95 0% - - 99% 0 mhos 46 - Yes - - -
02/26/2017 19:27 Ice Warning 28.0F - 31F 32F 95 0% - - 99% 0 mhos 46 - Yes - - -
02/26/2017 19:17 Ice Warning 28.0F - 31F 32F 95 0% - - 99% 0 mhos 45 - Yes - - -
02/26/2017 19:16 Ice Warning 28.0F - 31F 32F 95 0% - - 99% 0 mhos 45 - Yes - - -
02/26/2017 19:07 Ice Warning 28.0F - 31F 32F 95 0% - - 99% 0 mhos 44 - Yes - - -
02/26/2017 19:01 Ice Warning 28.0F - 31F 32F 95 0% - - 99% 0 mhos 45 - Yes - - -
02/26/2017 18:57 Ice Warning 27.9F - 31F 32F 95 0% - - 99% 0 mhos 45 - Yes - - -
02/26/2017 18:47 Ice Warning 28.0F - 31F 32F 95 0% - - 99% 0 mhos 48 - Yes - - -
02/26/2017 18:46 Ice Warning 28.0F - 31F 32F 95 0% - - 99% 0 mhos 49 - Yes - - -
Date/Time
(MST)
Sf
Temp Chem Water Layer Surface Precipitation
Sfc Pvt Sub Frz Factor Pct Dpth DpthThk IcePct Cond Salin FI Type Intens Accum Rate
02/26/2017 18:37 Ice Warning 28.0F - 31F 32F 95 0% - - 99% 0 mhos 54 - Yes - - -
02/26/2017 18:31 Ice Warning 28.2F - 31F 32F 95 0% - - 98% 1 mhos 93 - Yes - - -
02/26/2017 18:27 Ice Warning 28.2F - 31F 32F 95 0% - - 97% 1 mhos 100 - Yes - - -
02/26/2017 18:17 Chemically Wet 28.6F - 31F 31F 95 3% - - 80% 6 mhos 681 - Yes - - -
02/26/2017 18:16 Chemically Wet 28.8F - 31F 31F 95 3% - - 76% 7 mhos 769 - Yes - - -
02/26/2017 18:07 Chemically Wet 29.1F - 31F 31F 95 3% - - 69% 8 mhos 898 - Yes - - -
02/26/2017 18:01 Chemically Wet 29.3F - 31F 31F 95 3% - - 65% 8 mhos 907 - Yes - - -
02/26/2017 17:57 Chemically Wet 29.5F - 31F 31F 95 3% - - 64% 8 mhos 876 - Yes - - -
02/26/2017 17:47 Chemically Wet 30.0F - 31F 31F 95 3% - - 60% 7 mhos 798 - Yes - - -
02/26/2017 17:46 Chemically Wet 30.0F - 31F 31F 95 3% - - 60% 7 mhos 801 - Yes - - -
02/26/2017 17:37 Chemically Wet 30.4F - 31F 31F 95 3% - - 45% 8 mhos 832 - Yes - - -
02/26/2017 17:31 Chemically Wet 30.7F - 31F 31F 95 3% - - 32% 7 mhos 820 - Yes - - -
02/26/2017 17:27 Chemically Wet 31.1F - 31F 31F 95 3% - - 12% 7 mhos 793 - Yes - - -
02/26/2017 17:17 Chemically Wet 31.5F - 31F 31F 95 3% 0.00 in - 0% 7 mhos 758 - Yes - - -
02/26/2017 17:16 Chemically Wet 31.5F - 31F 31F 95 3% 0.00 in - 0% 7 mhos 761 - Yes - - -
Date/Time
(MST)
Sf
Temp Chem Water Layer Surface Precipitation
Sfc Pvt Sub Frz Factor Pct Dpth DpthThk IcePct Cond Salin FI Type Intens Accum Rate
02/26/2017 17:07 Chemically Wet 31.8F - 31F 31F 95 3% 0.00 in - 0% 7 mhos 752 - Yes - - -
02/26/2017 17:01 Wet 32.4F - 31F 31F 95 3% 0.00 in - 0% 7 mhos 753 - Yes - - -
02/26/2017 16:57 Wet 32.5F - 31F 31F 95 3% 0.00 in - 0% 7 mhos 775 - Yes - - -
02/26/2017 16:47 Wet 32.9F - 31F 31F 95 3% 0.00 in - 0% 7 mhos 761 - Yes - - -
02/26/2017 16:46 Wet 33.1F - 31F 31F 95 3% 0.00 in - 0% 7 mhos 764 - Yes - - -
02/26/2017 16:37 Wet 33.8F - 31F 31F 95 3% 0.00 in - 0% 6 mhos 669 - Yes - - -
02/26/2017 16:31 Wet 34.2F - 31F 31F 95 4% 0.00 in - 0% 9 mhos 979 - None None - -
02/26/2017 16:27 Wet 34.7F - 31F 31F 95 3% 0.00 in - 0% 8 mhos 822 - Yes - - -
02/26/2017 16:16 Wet 35.1F - 31F 31F 95 3% 0.00 in - 0% 8 mhos 784 - Yes - - -
02/26/2017 16:16 Wet 35.1F - 31F 31F 95 3% 0.00 in - 0% 8 mhos 784 - Yes - - -
02/26/2017 16:06 Wet 35.4F - 31F 31F 95 3% 0.00 in - 0% 7 mhos 696 - Yes - - -
02/26/2017 16:01 Wet 36.0F - 31F 31F 95 3% 0.00 in - 0% 7 mhos 673 - Yes - - -
02/26/2017 15:56 Wet 36.0F - 31F 31F 95 2% 0.00 in - 0% 6 mhos 619 - Yes - - -
02/26/2017 15:46 Wet 35.8F - 31F 31F 95 3% 0.00 in - 0% 7 mhos 709 - Yes - - -
02/26/2017 15:46 Wet 35.8F - 31F 31F 95 3% 0.00 in - 0% 7 mhos 709 - Yes - - -
Date/Time
(MST)
Sf
Temp Chem Water Layer Surface Precipitation
Sfc Pvt Sub Frz Factor Pct Dpth DpthThk IcePct Cond Salin FI Type Intens Accum Rate
02/26/2017 15:36 Wet 36.1F - 31F 31F 95 3% 0.00 in - 0% 8 mhos 832 - Yes - - -
02/26/2017 15:31 Wet 37.0F - 31F 31F 95 3% 0.00 in - 0% 8 mhos 852 - Yes - - -
02/26/2017 15:26 Wet 37.2F - 31F 31F 95 3% 0.00 in - 0% 8 mhos 799 - Yes - - -
02/26/2017 15:16 Wet 36.7F - 31F 31F 95 3% 0.00 in - 0% 7 mhos 711 - Yes - - -
02/26/2017 15:16 Wet 36.7F - 31F 31F 95 3% 0.00 in - 0% 7 mhos 711 - Yes - - -
02/26/2017 15:06 Wet 37.8F - 31F 31F 95 3% 0.00 in - 0% 7 mhos 732 - Yes - - -
02/26/2017 15:01 Wet 37.8F - 31F 31F 95 2% 0.00 in - 0% 5 mhos 501 - Yes - - -
02/26/2017 14:56 Wet 37.6F - 31F 31F 95 2% 0.00 in - 0% 5 mhos 461 - Yes - - -
02/26/2017 14:46 Wet 38.1F - 31F 31F 95 3% 0.00 in - 0% 9 mhos 862 - Yes - - -
02/26/2017 14:46 Wet 38.1F - 31F 31F 95 3% 0.00 in - 0% 9 mhos 862 - Yes - - -
02/26/2017 14:36 Wet 38.1F - 31F 31F 95 3% 0.00 in - 0% 8 mhos 773 - Yes - - -
02/26/2017 14:31 Wet 37.9F - 31F 31F 95 3% 0.00 in - 0% 7 mhos 710 - Yes - - -
02/26/2017 14:26 Wet 38.5F - 31F 31F 95 3% 0.00 in - 0% 9 mhos 909 - Yes - - -
02/26/2017 14:16 Wet 37.0F - 31F 31F 95 4% 0.00 in - 0% 10 mhos 980 - Yes - - -
02/26/2017 14:16 Wet 37.0F - 31F 31F 95 4% 0.00 in - 0% 10 mhos 980 - Yes - - -
Date/Time
(MST)
Sf
Temp Chem Water Layer Surface Precipitation
Sfc Pvt Sub Frz Factor Pct Dpth DpthThk IcePct Cond Salin FI Type Intens Accum Rate
02/26/2017 14:06 Wet 38.3F - 31F 31F 95 4% 0.00 in - 0% 11 mhos 1115 - Yes - - -
02/26/2017 14:01 Wet 38.7F - 31F 31F 95 4% 0.00 in - 0% 12 mhos 1156 - Yes - - -
02/26/2017 13:56 Wet 39.0F - 31F 31F 95 4% 0.00 in - 0% 12 mhos 1143 - Yes - - -
02/26/2017 13:46 Wet 39.0F - 31F 31F 95 4% 0.00 in - 0% 11 mhos 1105 - Yes - - -
02/26/2017 13:46 Wet 39.0F - 31F 31F 95 4% 0.00 in - 0% 11 mhos 1105 - Yes - - -
02/26/2017 13:36 Wet 38.8F - 31F 31F 95 4% 0.00 in - 0% 11 mhos 1085 - Yes - - -
02/26/2017 13:31 Wet 39.0F - 31F 31F 95 4% 0.00 in - 0% 12 mhos 1131 - Yes - - -
02/26/2017 13:26 Wet 39.0F - 31F 31F 95 4% 0.00 in - 0% 11 mhos 1048 - Yes - - -
02/26/2017 13:16 Wet 39.2F - 31F 31F 95 4% 0.00 in - 0% 11 mhos 1115 - Yes - - -
02/26/2017 13:16 Wet 39.2F - 31F 31F 95 4% 0.00 in - 0% 11 mhos 1115 - Yes - - -
02/26/2017 13:06 Wet 38.7F - 31F 31F 95 4% 0.00 in - 0% 9 mhos 921 - Yes - - -
02/26/2017 13:01 Wet 39.0F - 31F 31F 95 5% 0.00 in - 0% 12 mhos 1181 - Yes - - -
02/26/2017 12:55 Wet 39.0F - 31F 31F 95 4% 0.00 in - 0% 12 mhos 1136 - None None - -
02/26/2017 12:46 Wet 38.7F - 31F 31F 95 3% 0.00 in - 0% 9 mhos 889 - Yes - - -
02/26/2017 12:45 Wet 38.7F - 31F 31F 95 3% 0.00 in - 0% 9 mhos 889 - Yes - - -
Date/Time
(MST)
Sf
Temp Chem Water Layer Surface Precipitation
Sfc Pvt Sub Frz Factor Pct Dpth DpthThk IcePct Cond Salin FI Type Intens Accum Rate
02/26/2017 12:35 Wet 37.2F - 31F 31F 95 5% 0.00 in - 0% 12 mhos 1174 - Yes - - -
02/26/2017 12:31 Wet 37.0F - 31F 31F 95 5% 0.10 in - 0% 12 mhos 1175 - Yes - - -
02/26/2017 12:25 Wet 36.9F - 31F 31F 95 5% 0.00 in - 0% 12 mhos 1207 - Yes - - -
02/26/2017 12:16 Wet 36.1F - 31F 31F 95 5% 0.00 in - 0% 12 mhos 1195 - Yes - - -
02/26/2017 12:15 Wet 36.1F - 31F 31F 95 5% 0.00 in - 0% 12 mhos 1195 - Yes - - -
02/26/2017 12:05 Wet 35.4F - 31F 31F 95 5% 0.00 in - 0% 12 mhos 1226 - Yes - - -
02/26/2017 12:01 Wet 35.1F - 31F 31F 95 5% 0.00 in - 0% 12 mhos 1217 - Yes - - -
02/26/2017 11:55 Wet 34.7F - 31F 31F 95 5% 0.20 in - 0% 13 mhos 1311 - Yes - - -
02/26/2017 11:46 Wet 33.4F - 31F 31F 95 5% 0.10 in - 0% 12 mhos 1283 - Yes - - -
02/26/2017 11:45 Wet 33.4F - 31F 31F 95 5% 0.10 in - 0% 12 mhos 1283 - Yes - - -
02/26/2017 11:35 Wet 32.9F - 31F 31F 95 5% 0.10 in - 0% 13 mhos 1379 - Yes - - -
02/26/2017 11:31 Wet 32.7F - 31F 31F 95 5% 0.10 in - 0% 13 mhos 1382 - Yes - - -
Change End Date:

Copyright © 1998-2015 Vaisala, Inc.
All Rights Reserved
Send comments about the data to:
SCAN Web ® is a registered trademark of Vaisala, Inc.
SCAN Web Version 6.0